Time;durP1;ratioP1;P1;durP2;ratioP2;P2;SDS_P1;SDS_P2;PMS_P1;PMS_P2;Temp;Humidity;BMP_temperature;BMP_pressure;BME280_temperature;BME280_humidity;BME280_pressure;Samples;Min_cycle;Max_cycle;Signal;HPM_P1;HPM_P2
2022/07/05 00:02:21;;;;;;;4.00;2.60;;;14.60;98.30;;;;;;5091648;28;20035;-53
2022/07/05 00:04:47;;;;;;;4.95;2.90;;;14.60;98.20;;;;;;5091972;28;20519;-51
2022/07/05 00:07:19;;;;;;;3.60;2.55;;;14.60;98.30;;;;;;5091914;28;20108;-59
2022/07/05 00:09:56;;;;;;;5.38;2.92;;;14.60;98.50;;;;;;5092044;28;20032;-53
2022/07/05 00:12:28;;;;;;;3.58;2.28;;;14.50;98.20;;;;;;5091351;28;20355;-54
2022/07/05 00:14:54;;;;;;;4.88;2.92;;;14.50;98.60;;;;;;5091821;28;20016;-50
2022/07/05 00:17:20;;;;;;;3.60;2.80;;;14.40;98.50;;;;;;5091639;28;20099;-57
2022/07/05 00:19:46;;;;;;;4.05;2.22;;;14.40;98.70;;;;;;5091945;28;20123;-52
2022/07/05 00:22:12;;;;;;;4.47;2.80;;;14.30;98.70;;;;;;5091226;28;20467;-55
2022/07/05 00:24:37;;;;;;;4.00;2.80;;;14.30;98.80;;;;;;5091810;28;20042;-47
2022/07/05 00:27:03;;;;;;;4.70;3.13;;;14.30;98.90;;;;;;5091754;28;20082;-51
2022/07/05 00:29:29;;;;;;;5.47;3.17;;;14.30;99.00;;;;;;5091192;28;20078;-43
2022/07/05 00:31:55;;;;;;;5.10;2.80;;;14.20;98.90;;;;;;5091470;28;20020;-50
2022/07/05 00:34:21;;;;;;;5.20;3.30;;;14.20;99.10;;;;;;5091504;28;20082;-52
2022/07/05 00:36:47;;;;;;;5.57;3.13;;;14.20;99.00;;;;;;5091558;28;20026;-46
2022/07/05 00:39:13;;;;;;;4.75;3.15;;;14.20;99.20;;;;;;5091281;28;20390;-55
2022/07/05 00:41:39;;;;;;;5.45;2.83;;;14.10;99.30;;;;;;5091121;28;20085;-57
2022/07/05 00:44:10;;;;;;;4.78;3.03;;;14.10;99.40;;;;;;5082587;28;20081;-52
2022/07/05 00:46:37;;;;;;;5.90;3.20;;;14.10;99.40;;;;;;5085101;28;20036;-54
2022/07/05 00:49:04;;;;;;;4.93;2.72;;;14.10;99.10;;;;;;5091396;28;20024;-52
2022/07/05 00:51:32;;;;;;;4.15;2.97;;;14.10;99.60;;;;;;5089843;28;20391;-56
2022/07/05 00:54:00;;;;;;;5.38;3.30;;;14.10;99.40;;;;;;5091009;28;20118;-49
2022/07/05 00:56:27;;;;;;;4.68;3.13;;;14.10;99.40;;;;;;5090902;28;20451;-54
2022/07/05 00:58:53;;;;;;;5.40;3.15;;;14.10;99.50;;;;;;5090935;28;20020;-49
2022/07/05 01:01:19;;;;;;;4.78;2.75;;;14.00;99.00;;;;;;5091051;28;20667;-55
2022/07/05 01:03:45;;;;;;;4.78;3.25;;;14.00;99.50;;;;;;5091001;28;20020;-47
2022/07/05 01:06:12;;;;;;;7.22;3.45;;;13.90;99.40;;;;;;5090874;28;20026;-57
2022/07/05 01:08:40;;;;;;;3.72;2.75;;;13.90;99.60;;;;;;5090778;28;20054;-53
2022/07/05 01:11:07;;;;;;;3.85;2.70;;;13.90;99.60;;;;;;5088022;28;20075;-55
2022/07/05 01:13:35;;;;;;;4.88;3.00;;;13.90;99.90;;;;;;5084226;28;20028;-53
2022/07/05 01:16:01;;;;;;;3.78;2.63;;;14.00;99.90;;;;;;5090454;28;20123;-54
2022/07/05 01:18:28;;;;;;;5.25;3.22;;;14.00;99.90;;;;;;5090900;28;20021;-54
2022/07/05 01:20:54;;;;;;;4.80;3.20;;;14.00;99.60;;;;;;5090813;28;20032;-51
2022/07/05 01:23:20;;;;;;;7.15;3.38;;;13.90;99.90;;;;;;5090740;28;20020;-52
2022/07/05 01:25:47;;;;;;;5.35;3.55;;;13.90;99.70;;;;;;5090099;28;20028;-52
2022/07/05 01:28:13;;;;;;;5.30;3.00;;;13.90;99.90;;;;;;5090680;28;20016;-49
2022/07/05 01:30:40;;;;;;;5.47;3.33;;;13.90;99.90;;;;;;5090861;28;20391;-49
2022/07/05 01:33:07;;;;;;;4.80;3.15;;;13.90;99.60;;;;;;5090843;28;20125;-53
2022/07/05 01:35:33;;;;;;;5.90;3.53;;;13.80;99.90;;;;;;5090612;28;20124;-51
2022/07/05 01:37:59;;;;;;;4.75;3.35;;;13.80;99.70;;;;;;5090516;28;20039;-55
2022/07/05 01:40:25;;;;;;;6.57;3.65;;;13.80;99.90;;;;;;5090638;28;20047;-54
2022/07/05 01:42:51;;;;;;;6.35;4.00;;;13.80;99.90;;;;;;5092699;28;20526;-45
2022/07/05 01:48:05;;;;;;;7.28;3.63;;;13.70;99.50;;;;;;5094868;28;20150;-47
2022/07/05 01:50:36;;;;;;;5.28;3.88;;;13.70;99.80;;;;;;5094374;28;20024;-46
2022/07/05 01:53:03;;;;;;;5.80;3.70;;;13.60;99.60;;;;;;5094641;28;20024;-49
2022/07/05 01:55:30;;;;;;;10.32;4.07;;;13.60;99.80;;;;;;5094019;28;20035;-49
2022/07/05 01:57:56;;;;;;;5.63;3.97;;;13.60;99.60;;;;;;5094569;28;20035;-54
2022/07/05 02:00:22;;;;;;;5.80;3.80;;;13.50;99.60;;;;;;5094133;28;20048;-58
2022/07/05 02:02:48;;;;;;;7.30;4.43;;;13.50;99.60;;;;;;5094422;28;20489;-57
2022/07/05 02:05:14;;;;;;;7.45;3.85;;;13.50;99.80;;;;;;5093977;28;20521;-55
2022/07/05 02:07:47;;;;;;;6.35;4.22;;;13.40;99.90;;;;;;5094443;28;20024;-50
2022/07/05 02:10:13;;;;;;;6.05;4.30;;;13.30;99.50;;;;;;5094031;28;20085;-45
2022/07/05 02:12:39;;;;;;;6.65;4.50;;;13.30;99.70;;;;;;5093947;28;20028;-56
2022/07/05 02:15:05;;;;;;;6.88;4.20;;;13.30;99.80;;;;;;5093804;28;20023;-51
2022/07/05 02:17:31;;;;;;;8.15;4.25;;;13.30;99.60;;;;;;5085009;28;20031;-52
2022/07/05 02:19:57;;;;;;;7.93;4.25;;;13.30;99.70;;;;;;5093668;28;20024;-52
2022/07/05 02:22:23;;;;;;;6.25;4.30;;;13.30;99.90;;;;;;5093948;28;20027;-59
2022/07/05 02:24:49;;;;;;;6.38;4.40;;;13.20;99.70;;;;;;5091769;28;20424;-56
2022/07/05 02:27:15;;;;;;;6.47;4.57;;;13.20;99.90;;;;;;5081468;28;20059;-56
2022/07/05 02:29:41;;;;;;;7.22;4.65;;;13.20;99.90;;;;;;5094044;28;20024;-49
2022/07/05 02:32:07;;;;;;;6.10;4.00;;;13.20;99.70;;;;;;5093704;28;20113;-59
2022/07/05 02:34:33;;;;;;;7.68;4.55;;;13.10;99.90;;;;;;5081657;28;20428;-58
2022/07/05 02:36:59;;;;;;;7.13;4.50;;;13.20;99.90;;;;;;5091511;28;20095;-58
2022/07/05 02:39:24;;;;;;;6.85;4.50;;;13.20;99.90;;;;;;5093852;28;20024;-56
2022/07/05 02:41:50;;;;;;;6.47;4.10;;;13.10;99.70;;;;;;5093600;28;20032;-53
2022/07/05 02:44:16;;;;;;;7.72;4.82;;;13.10;99.80;;;;;;5093422;28;20068;-44
2022/07/05 02:46:41;;;;;;;6.57;4.63;;;13.10;99.30;;;;;;5093476;28;20483;-51
2022/07/05 02:49:07;;;;;;;7.00;4.35;;;13.10;99.70;;;;;;5093260;28;20080;-52
2022/07/05 02:51:32;;;;;;;6.38;4.20;;;13.10;99.70;;;;;;5082310;28;20017;-54
2022/07/05 02:53:58;;;;;;;7.60;4.82;;;13.10;99.90;;;;;;5089832;28;20012;-56
2022/07/05 02:56:24;;;;;;;7.43;4.78;;;13.00;99.90;;;;;;5093382;28;20024;-48
2022/07/05 02:58:49;;;;;;;6.47;4.28;;;13.00;99.60;;;;;;5093133;28;20020;-53
2022/07/05 03:01:15;;;;;;;6.50;4.47;;;13.00;99.80;;;;;;5093030;28;20111;-42
2022/07/05 03:03:41;;;;;;;7.03;4.22;;;13.00;99.60;;;;;;5092926;28;20031;-59
2022/07/05 03:06:07;;;;;;;6.07;3.88;;;12.90;99.80;;;;;;5093340;28;20028;-53
2022/07/05 03:08:32;;;;;;;6.57;4.35;;;12.90;99.80;;;;;;5093218;28;20020;-56
2022/07/05 03:10:58;;;;;;;6.82;4.50;;;12.90;99.90;;;;;;5092963;28;20024;-52
2022/07/05 03:13:24;;;;;;;7.75;4.50;;;12.80;99.90;;;;;;5092858;28;20032;-49
2022/07/05 03:15:49;;;;;;;7.65;4.38;;;12.80;99.90;;;;;;5092849;28;20031;-56
2022/07/05 03:18:15;;;;;;;6.63;4.78;;;12.80;99.90;;;;;;5092795;28;20028;-55
2022/07/05 03:20:41;;;;;;;6.40;4.00;;;12.80;99.90;;;;;;5092949;28;20032;-53
2022/07/05 03:23:06;;;;;;;7.13;4.88;;;12.80;99.90;;;;;;5092676;28;20409;-55
2022/07/05 03:25:32;;;;;;;7.47;3.90;;;12.80;99.90;;;;;;5082833;28;20033;-57
2022/07/05 03:27:58;;;;;;;7.38;4.25;;;12.70;99.80;;;;;;5088539;28;20020;-59
2022/07/05 03:30:23;;;;;;;6.53;4.22;;;12.80;99.70;;;;;;5092681;28;20028;-51
2022/07/05 03:32:49;;;;;;;8.02;4.10;;;12.80;99.90;;;;;;5092423;28;20035;-58
2022/07/05 03:35:15;;;;;;;7.25;3.80;;;12.80;99.90;;;;;;5092046;28;20080;-44
2022/07/05 03:37:40;;;;;;;7.07;3.85;;;12.80;99.90;;;;;;5092619;28;20654;-58
2022/07/05 03:40:07;;;;;;;6.35;3.80;;;12.80;99.80;;;;;;5092229;28;20040;-56
2022/07/05 03:42:34;;;;;;;7.80;4.07;;;12.80;99.70;;;;;;5092263;28;20024;-61
2022/07/05 03:44:59;;;;;;;6.53;3.97;;;12.70;99.30;;;;;;5092389;28;20077;-58
2022/07/05 03:47:25;;;;;;;5.55;3.80;;;12.70;99.80;;;;;;5092393;28;20032;-56
2022/07/05 03:49:51;;;;;;;6.95;3.90;;;12.70;99.40;;;;;;5092344;28;20073;-48
2022/07/05 03:52:16;;;;;;;6.03;3.75;;;12.60;99.70;;;;;;5092056;28;20032;-52
2022/07/05 03:54:44;;;;;;;5.95;3.80;;;12.60;99.90;;;;;;5092278;28;20016;-55
2022/07/05 03:57:11;;;;;;;8.40;3.67;;;12.60;99.90;;;;;;5092112;28;20508;-47
2022/07/05 03:59:36;;;;;;;8.05;4.38;;;12.60;99.80;;;;;;5091622;28;20119;-57
2022/07/05 04:02:02;;;;;;;6.88;3.55;;;12.50;99.60;;;;;;5091586;28;20123;-58
2022/07/05 04:04:28;;;;;;;7.32;3.88;;;12.50;99.90;;;;;;5091334;28;20099;-58
2022/07/05 04:06:53;;;;;;;5.03;3.75;;;12.50;99.90;;;;;;5091873;28;20016;-53
2022/07/05 04:09:19;;;;;;;5.38;3.45;;;12.40;99.90;;;;;;5091862;28;20543;-54
2022/07/05 04:11:44;;;;;;;5.90;3.28;;;12.50;99.90;;;;;;5091687;28;20042;-58
2022/07/05 04:14:10;;;;;;;6.13;3.35;;;12.40;99.90;;;;;;5091611;28;20024;-61
2022/07/05 04:16:37;;;;;;;5.20;3.53;;;12.40;99.90;;;;;;5091706;28;20012;-53
2022/07/05 04:19:03;;;;;;;4.65;3.45;;;12.40;99.90;;;;;;5091673;28;20024;-58
2022/07/05 04:21:28;;;;;;;6.40;3.40;;;12.30;99.90;;;;;;5091336;28;20047;-42
2022/07/05 04:23:54;;;;;;;6.47;3.63;;;12.40;99.90;;;;;;5091628;28;20024;-37
2022/07/05 04:26:19;;;;;;;7.60;3.70;;;12.30;99.90;;;;;;5077215;28;20024;-39
2022/07/05 04:28:45;;;;;;;5.28;3.30;;;12.30;99.90;;;;;;5091714;28;20108;-38
2022/07/05 04:31:11;;;;;;;6.90;3.47;;;12.20;99.90;;;;;;5091168;28;20024;-40
2022/07/05 04:33:37;;;;;;;4.75;3.10;;;12.20;99.90;;;;;;5091573;28;20027;-42
2022/07/05 04:36:02;;;;;;;5.80;3.65;;;12.10;99.90;;;;;;5091687;28;20032;-39
2022/07/05 04:38:29;;;;;;;6.15;3.30;;;12.10;99.90;;;;;;5091405;28;20043;-47
2022/07/05 04:40:54;;;;;;;6.72;3.70;;;12.00;99.90;;;;;;5091152;28;20040;-38
2022/07/05 04:43:20;;;;;;;5.55;3.55;;;12.00;99.90;;;;;;5091199;28;20031;-38
2022/07/05 04:45:46;;;;;;;5.38;3.13;;;12.00;99.90;;;;;;5091323;28;20016;-38
2022/07/05 04:48:11;;;;;;;5.72;3.78;;;12.00;99.90;;;;;;5091253;28;20020;-39
2022/07/05 04:50:37;;;;;;;5.30;3.30;;;12.00;99.90;;;;;;5091140;28;20114;-59
2022/07/05 04:53:02;;;;;;;5.28;3.10;;;12.00;99.90;;;;;;5091225;28;20490;-50
2022/07/05 04:55:28;;;;;;;5.65;3.83;;;12.00;99.90;;;;;;5091228;28;20035;-41
2022/07/05 04:57:54;;;;;;;6.32;3.15;;;12.00;99.90;;;;;;5091221;28;20016;-43
2022/07/05 05:00:19;;;;;;;7.97;3.50;;;12.20;99.90;;;;;;5090695;28;20032;-38
2022/07/05 05:02:45;;;;;;;4.90;3.08;;;12.70;99.90;;;;;;5091113;28;20020;-54
2022/07/05 05:05:11;;;;;;;5.15;2.90;;;13.10;99.20;;;;;;5091213;28;20111;-54
2022/07/05 05:07:41;;;;;;;6.68;3.03;;;13.60;98.70;;;;;;5091304;28;20008;-48
2022/07/05 05:10:07;;;;;;;6.50;3.63;;;14.00;98.50;;;;;;5090855;28;20028;-48
2022/07/05 05:12:32;;;;;;;5.35;3.42;;;14.40;96.40;;;;;;5090783;28;20471;-62
2022/07/05 05:14:58;;;;;;;5.72;3.00;;;14.60;96.20;;;;;;5090430;28;20021;-41
2022/07/05 05:17:24;;;;;;;5.68;3.42;;;14.70;95.90;;;;;;5094248;28;20746;-55
2022/07/05 05:19:50;;;;;;;6.47;3.20;;;14.80;95.30;;;;;;5094752;28;20081;-43
2022/07/05 05:22:15;;;;;;;5.78;3.30;;;14.60;95.40;;;;;;5095022;28;20047;-59
2022/07/05 05:24:41;;;;;;;5.28;3.00;;;14.50;96.10;;;;;;5092200;28;20372;-54
2022/07/05 05:27:06;;;;;;;8.88;3.30;;;14.30;95.60;;;;;;5083511;28;20036;-54
2022/07/05 05:29:32;;;;;;;6.13;3.00;;;14.00;96.30;;;;;;5094550;28;20020;-53
2022/07/05 05:31:59;;;;;;;4.22;2.75;;;13.80;97.00;;;;;;5095185;28;20429;-41
2022/07/05 05:34:24;;;;;;;4.97;2.40;;;13.70;97.90;;;;;;5095014;28;20024;-58
2022/07/05 05:36:50;;;;;;;5.25;3.00;;;13.90;97.70;;;;;;5094828;28;20074;-55
2022/07/05 05:39:16;;;;;;;4.20;2.47;;;14.10;97.10;;;;;;5094702;28;20024;-62
2022/07/05 05:41:41;;;;;;;3.67;2.20;;;14.30;96.40;;;;;;5094418;28;20040;-46
2022/07/05 05:44:09;;;;;;;3.47;2.03;;;14.50;96.30;;;;;;5094661;28;20082;-49
2022/07/05 05:46:35;;;;;;;3.90;2.22;;;14.70;96.00;;;;;;5094531;28;20629;-56
2022/07/05 05:49:00;;;;;;;4.70;2.22;;;15.00;95.60;;;;;;5094309;28;20076;-40
2022/07/05 05:51:26;;;;;;;3.72;2.03;;;15.20;94.90;;;;;;5087398;28;20025;-56
2022/07/05 05:53:52;;;;;;;4.80;2.15;;;15.60;94.80;;;;;;5087505;28;20062;-50
2022/07/05 05:56:17;;;;;;;3.75;1.90;;;16.00;92.80;;;;;;5092526;28;20027;-55
2022/07/05 05:58:43;;;;;;;4.80;2.22;;;16.40;91.30;;;;;;5093028;28;20077;-52
2022/07/05 06:01:09;;;;;;;3.13;1.85;;;17.10;90.80;;;;;;5093492;28;20067;-47
2022/07/05 06:03:34;;;;;;;3.20;1.60;;;18.00;89.50;;;;;;5093165;28;20031;-52
2022/07/05 06:06:00;;;;;;;4.00;1.83;;;18.80;86.50;;;;;;5093778;28;20036;-56
2022/07/05 06:08:25;;;;;;;3.78;1.75;;;19.50;85.20;;;;;;5094105;28;20012;-58
2022/07/05 06:10:51;;;;;;;3.08;1.50;;;20.10;81.00;;;;;;5094052;28;20024;-52
2022/07/05 06:13:17;;;;;;;2.17;1.50;;;20.60;79.80;;;;;;5092610;28;20044;-53
2022/07/05 06:15:43;;;;;;;5.10;1.70;;;21.40;77.10;;;;;;5092046;28;20040;-52
2022/07/05 06:18:10;;;;;;;3.15;1.50;;;21.70;76.80;;;;;;5092171;28;20036;-46
2022/07/05 06:20:37;;;;;;;3.67;1.40;;;22.30;72.50;;;;;;5091787;28;20111;-43
2022/07/05 06:23:05;;;;;;;4.00;1.70;;;22.60;71.60;;;;;;5091790;28;20028;-43
2022/07/05 06:25:31;;;;;;;2.83;1.70;;;22.90;70.80;;;;;;5086409;28;20052;-53
2022/07/05 06:28:02;;;;;;;3.80;1.50;;;23.30;69.30;;;;;;5092254;28;20070;-61
2022/07/05 06:30:30;;;;;;;3.85;1.65;;;23.70;68.60;;;;;;5093567;28;20020;-44
2022/07/05 06:32:56;;;;;;;2.13;1.35;;;24.00;63.10;;;;;;5093636;28;20475;-51
2022/07/05 06:35:22;;;;;;;1.98;1.13;;;24.30;63.50;;;;;;5093413;28;21525;-49
2022/07/05 06:37:51;;;;;;;3.42;1.42;;;24.70;61.20;;;;;;5093806;28;20028;-55
2022/07/05 06:40:18;;;;;;;;;;;25.00;61.70;;;;;;5093628;28;20043;-53
2022/07/05 06:42:44;;;;;;;4.30;1.45;;;25.30;59.10;;;;;;5093591;28;19908;-58
2022/07/05 06:45:10;;;;;;;3.05;1.50;;;25.90;58.90;;;;;;5093577;28;20031;-47
2022/07/05 06:47:37;;;;;;;3.53;1.30;;;26.30;57.00;;;;;;5093647;28;20067;-51
2022/07/05 06:50:03;;;;;;;2.92;1.60;;;26.70;57.80;;;;;;5093060;28;20024;-58
2022/07/05 06:52:29;;;;;;;3.88;1.40;;;26.60;55.00;;;;;;5093525;28;20107;-49
2022/07/05 06:54:55;;;;;;;4.03;1.48;;;27.00;52.90;;;;;;5093308;28;20032;-54
2022/07/05 06:57:21;;;;;;;3.83;1.48;;;27.10;53.10;;;;;;5093189;28;20032;-59
2022/07/05 06:59:48;;;;;;;2.80;1.38;;;27.40;51.90;;;;;;5091861;28;20379;-54
2022/07/05 07:02:13;;;;;;;3.00;1.35;;;27.60;51.50;;;;;;5093044;28;20024;-48
2022/07/05 07:04:39;;;;;;;2.55;1.05;;;27.70;49.60;;;;;;5093386;28;20031;-53
2022/07/05 07:09:17;;;;;;;2.33;1.20;;;28.00;50.00;;;;;;5092617;28;20035;-45
2022/07/05 07:09:50;;;;;;;3.53;1.13;;;28.30;47.10;;;;;;5092771;28;20052;-53
2022/07/05 07:12:16;;;;;;;4.20;1.55;;;28.40;45.80;;;;;;5092613;28;20403;-49
2022/07/05 07:14:42;;;;;;;2.97;1.20;;;28.50;48.10;;;;;;5092737;28;20402;-55
2022/07/05 07:17:08;;;;;;;1.52;1.00;;;28.60;47.60;;;;;;5092260;28;20055;-59
2022/07/05 07:19:33;;;;;;;3.72;1.23;;;28.60;46.30;;;;;;5092222;28;20470;-55
2022/07/05 07:21:59;;;;;;;1.65;0.98;;;28.50;46.20;;;;;;5092190;28;20057;-48
2022/07/05 07:24:25;;;;;;;2.45;1.08;;;28.50;47.30;;;;;;5091696;28;20356;-52
2022/07/05 07:27:02;;;;;;;1.75;1.02;;;28.80;46.50;;;;;;5090451;28;20514;-55
2022/07/05 07:29:29;;;;;;;2.50;1.25;;;29.00;44.40;;;;;;5092489;28;20024;-52
2022/07/05 07:31:56;;;;;;;1.83;0.95;;;29.00;44.80;;;;;;5092539;28;20082;-49
2022/07/05 07:34:22;;;;;;;2.40;1.25;;;29.30;44.60;;;;;;5092494;28;20029;-45
2022/07/05 07:36:48;;;;;;;2.47;1.20;;;29.60;42.30;;;;;;5092598;28;20394;-50
2022/07/05 07:39:14;;;;;;;4.13;1.20;;;29.40;44.40;;;;;;5091853;28;20020;-55
2022/07/05 07:41:39;;;;;;;2.15;0.82;;;29.40;45.40;;;;;;5091825;28;20399;-45
2022/07/05 07:44:05;;;;;;;2.45;0.82;;;29.20;40.80;;;;;;5092188;28;20047;-52
2022/07/05 07:46:31;;;;;;;2.00;0.90;;;29.50;45.10;;;;;;5092380;28;20024;-48
2022/07/05 07:48:57;;;;;;;2.53;0.80;;;29.90;43.40;;;;;;5092139;28;20475;-47
2022/07/05 07:51:23;;;;;;;1.70;0.70;;;30.20;39.20;;;;;;5091794;28;20039;-42
2022/07/05 07:53:48;;;;;;;3.00;0.73;;;30.20;38.00;;;;;;5091911;28;20016;-56
2022/07/05 07:56:14;;;;;;;3.45;0.73;;;30.80;37.80;;;;;;5092258;28;20016;-53
2022/07/05 07:58:40;;;;;;;3.25;0.90;;;30.80;37.30;;;;;;5091619;28;20042;-47
2022/07/05 08:01:10;;;;;;;2.53;0.90;;;30.90;39.00;;;;;;5091501;28;20513;-51
2022/07/05 08:03:36;;;;;;;3.15;0.85;;;31.00;39.20;;;;;;5091738;28;20510;-49
2022/07/05 08:06:02;;;;;;;2.55;0.88;;;31.30;36.40;;;;;;5091554;28;20040;-42
2022/07/05 08:08:28;;;;;;;2.88;0.60;;;31.60;35.00;;;;;;5091169;28;20383;-47
2022/07/05 08:10:53;;;;;;;3.58;0.80;;;31.50;36.10;;;;;;5091857;28;20065;-44
2022/07/05 08:13:19;;;;;;;1.98;0.63;;;31.90;36.60;;;;;;5091932;28;20034;-57
2022/07/05 08:15:45;;;;;;;1.20;0.60;;;32.00;35.80;;;;;;5090443;28;20054;-40
2022/07/05 08:23:39;;;;;;;2.28;0.90;;;31.60;33.10;;;;;;5089897;28;20438;-53
2022/07/05 08:26:05;;;;;;;3.90;0.70;;;30.70;37.20;;;;;;5089262;28;20032;-45
2022/07/05 08:28:30;;;;;;;1.33;0.60;;;30.10;39.20;;;;;;5091634;28;20364;-46
2022/07/05 08:30:56;;;;;;;2.20;0.82;;;29.70;39.70;;;;;;5090646;28;20479;-57
2022/07/05 08:33:24;;;;;;;3.78;0.80;;;28.50;41.80;;;;;;5089087;28;20013;-56
2022/07/05 08:35:50;;;;;;;2.33;0.80;;;27.40;41.50;;;;;;5090232;28;20475;-55
2022/07/05 08:38:15;;;;;;;1.13;0.60;;;26.20;46.20;;;;;;5091147;28;20020;-54
2022/07/05 08:40:46;;;;;;;1.80;0.88;;;25.00;47.10;;;;;;5090713;28;20479;-48
2022/07/05 08:43:14;;;;;;;2.17;0.80;;;24.30;49.80;;;;;;5091115;28;20111;-52
2022/07/05 08:45:43;;;;;;;1.45;0.70;;;23.80;49.50;;;;;;5091200;28;20062;-56
2022/07/05 08:48:09;;;;;;;3.38;1.00;;;23.60;54.30;;;;;;5090572;28;20051;-45
2022/07/05 08:50:39;;;;;;;2.05;0.90;;;24.10;54.20;;;;;;5088715;28;20479;-43
2022/07/05 08:53:05;;;;;;;2.83;0.80;;;24.80;49.90;;;;;;5079519;28;20467;-55
2022/07/05 08:55:32;;;;;;;2.83;0.80;;;25.70;47.90;;;;;;5085906;28;20063;-51
2022/07/05 08:57:58;;;;;;;3.13;1.00;;;25.60;45.80;;;;;;5090669;28;20028;-45
2022/07/05 09:00:24;;;;;;;2.45;0.80;;;25.20;51.40;;;;;;5090517;28;20048;-52
2022/07/05 09:02:52;;;;;;;2.60;1.10;;;24.80;53.50;;;;;;5090739;28;20093;-51
2022/07/05 09:05:20;;;;;;;1.23;0.65;;;24.40;51.20;;;;;;5085701;28;20020;-42
2022/07/05 09:07:57;;;;;;;1.20;0.88;;;24.70;54.50;;;;;;5091141;28;20074;-53
2022/07/05 09:10:25;;;;;;;1.55;0.80;;;26.10;52.20;;;;;;5090777;28;20388;-55
2022/07/05 09:12:51;;;;;;;1.58;0.80;;;27.20;48.20;;;;;;5091061;28;20051;-48
2022/07/05 09:15:17;;;;;;;1.45;0.70;;;27.90;49.10;;;;;;5090707;28;20055;-38
2022/07/05 09:17:44;;;;;;;2.85;1.02;;;28.60;40.60;;;;;;5084757;28;20036;-44
2022/07/05 09:20:13;;;;;;;2.00;0.77;;;28.70;39.70;;;;;;5090406;28;20085;-45
2022/07/05 09:22:55;;;;;;;2.03;0.90;;;29.10;40.00;;;;;;5090683;28;20031;-53
2022/07/05 09:25:24;;;;;;;1.33;0.80;;;29.40;41.30;;;;;;5082724;28;20403;-47
2022/07/05 09:27:52;;;;;;;2.70;0.88;;;29.40;42.30;;;;;;5085552;28;20024;-51
2022/07/05 09:30:37;;;;;;;1.47;0.87;;;29.20;40.10;;;;;;5091035;28;20483;-54
2022/07/05 09:33:15;;;;;;;1.70;0.82;;;29.10;38.30;;;;;;5090723;28;20020;-59
2022/07/05 09:35:56;;;;;;;2.60;1.05;;;29.10;38.30;;;;;;5090871;28;20025;-48
2022/07/05 09:38:23;;;;;;;2.67;1.00;;;29.30;40.90;;;;;;5090665;28;20070;-55
2022/07/05 09:40:55;;;;;;;3.53;1.20;;;28.70;40.20;;;;;;5090630;28;20115;-59
2022/07/05 09:43:25;;;;;;;1.58;1.00;;;27.50;41.90;;;;;;5090294;28;20027;-46
2022/07/05 09:46:01;;;;;;;1.70;0.90;;;27.40;43.00;;;;;;5090588;28;20024;-44
2022/07/05 09:48:30;;;;;;;2.90;1.17;;;28.00;43.00;;;;;;5090550;28;20020;-53
2022/07/05 09:51:12;;;;;;;2.35;1.02;;;28.60;43.60;;;;;;5090684;28;20028;-53
2022/07/05 09:53:49;;;;;;;1.23;0.90;;;28.80;41.20;;;;;;5089357;28;20386;-53
2022/07/05 09:56:15;;;;;;;2.88;1.10;;;29.00;39.80;;;;;;5090789;28;20032;-57
2022/07/05 09:58:41;;;;;;;2.25;1.10;;;28.60;41.30;;;;;;5090388;28;20016;-48
2022/07/05 10:01:26;;;;;;;2.63;1.00;;;28.60;38.00;;;;;;5090022;28;20392;-57
2022/07/05 10:03:58;;;;;;;2.42;1.20;;;28.70;43.40;;;;;;5092525;28;20040;-53
2022/07/05 10:06:25;;;;;;;3.90;1.23;;;28.00;41.90;;;;;;5093472;28;20368;-60
2022/07/05 10:08:53;;;;;;;1.97;1.13;;;27.50;41.70;;;;;;5093766;28;20043;-57
2022/07/05 10:11:24;;;;;;;13.85;1.30;;;27.20;47.70;;;;;;5094034;28;20056;-61
2022/07/05 10:13:53;;;;;;;3.30;1.00;;;27.60;44.60;;;;;;5094121;28;20056;-46
2022/07/05 10:16:21;;;;;;;2.38;1.25;;;28.40;43.10;;;;;;5094135;28;20382;-53
2022/07/05 10:18:51;;;;;;;4.03;1.48;;;28.90;40.40;;;;;;5093925;28;20020;-48
2022/07/05 10:21:18;;;;;;;2.88;1.20;;;29.10;42.30;;;;;;5093549;28;20047;-55
2022/07/05 10:23:45;;;;;;;5.22;1.70;;;29.60;41.10;;;;;;5093904;28;20558;-53
2022/07/05 10:26:13;;;;;;;2.80;1.25;;;29.20;39.40;;;;;;5079634;28;20033;-52
2022/07/05 10:28:41;;;;;;;3.42;1.40;;;28.60;42.20;;;;;;5094031;28;20020;-54
2022/07/05 10:31:10;;;;;;;3.20;1.30;;;28.50;40.30;;;;;;5094120;28;20031;-54
2022/07/05 10:33:37;;;;;;;4.97;1.23;;;29.00;40.40;;;;;;5079886;28;20023;-55
2022/07/05 10:36:05;;;;;;;2.60;1.30;;;28.80;40.30;;;;;;5093843;28;20024;-45
2022/07/05 10:38:35;;;;;;;2.60;1.38;;;28.80;40.60;;;;;;5093885;28;20024;-53
2022/07/05 10:41:04;;;;;;;2.83;1.45;;;28.90;43.60;;;;;;5093611;28;20040;-53
2022/07/05 10:43:30;;;;;;;;;;;29.40;39.90;;;;;;5093914;28;20020;-57
2022/07/05 10:45:56;;;;;;;2.00;1.20;;;29.00;41.10;;;;;;5093711;28;19915;-48
2022/07/05 10:48:23;;;;;;;3.08;1.30;;;28.40;39.10;;;;;;5093457;28;20024;-53
2022/07/05 10:50:59;;;;;;;2.03;1.30;;;28.00;42.30;;;;;;5093417;28;20428;-59
2022/07/05 10:53:32;;;;;;;2.65;1.25;;;27.90;41.20;;;;;;5093237;28;20081;-55
2022/07/05 10:55:59;;;;;;;3.83;1.30;;;28.10;40.40;;;;;;5092901;28;20028;-51
2022/07/05 10:58:29;;;;;;;2.55;1.30;;;28.00;39.40;;;;;;5093154;28;20036;-56
2022/07/05 11:01:18;;;;;;;3.00;1.05;;;27.80;41.60;;;;;;5093143;28;20113;-47
2022/07/05 11:03:58;;;;;;;4.32;1.10;;;28.20;39.80;;;;;;5086263;28;20099;-50
2022/07/05 11:06:25;;;;;;;2.60;1.20;;;28.70;40.20;;;;;;5083541;28;20028;-59
2022/07/05 11:08:57;;;;;;;1.83;1.00;;;28.90;38.80;;;;;;5073848;28;20055;-43
2022/07/05 11:11:28;;;;;;;4.22;1.00;;;29.00;37.40;;;;;;5083217;28;20030;-38
2022/07/05 11:13:55;;;;;;;2.30;1.08;;;29.00;38.00;;;;;;5091952;28;20027;-42
2022/07/05 11:16:23;;;;;;;2.40;1.00;;;29.00;39.60;;;;;;5092982;28;20095;-37
2022/07/05 11:18:53;;;;;;;2.80;0.95;;;28.90;37.80;;;;;;5091543;28;20027;-55
2022/07/05 11:21:22;;;;;;;4.32;1.42;;;28.80;42.50;;;;;;5092851;28;20040;-54
2022/07/05 11:23:48;;;;;;;3.30;1.23;;;28.80;38.60;;;;;;5092367;28;20153;-53
2022/07/05 11:26:17;;;;;;;4.45;1.38;;;28.90;38.70;;;;;;5078539;28;20460;-55
2022/07/05 11:28:44;;;;;;;1.92;1.25;;;29.10;40.70;;;;;;5093130;28;20107;-50
2022/07/05 11:31:10;;;;;;;3.50;1.70;;;29.10;42.50;;;;;;5092299;28;20394;-57
2022/07/05 11:33:43;;;;;;;2.33;1.05;;;29.00;40.70;;;;;;5092721;28;20020;-47
2022/07/05 11:36:28;;;;;;;2.63;1.10;;;29.50;39.90;;;;;;5091712;28;20063;-48
2022/07/05 11:39:15;;;;;;;2.75;1.30;;;30.00;40.30;;;;;;5091665;28;20028;-55
2022/07/05 11:41:42;;;;;;;1.83;0.95;;;30.20;40.00;;;;;;5089884;28;20097;-41
2022/07/05 11:44:08;;;;;;;2.78;1.02;;;30.70;37.30;;;;;;5092488;28;20103;-54
2022/07/05 11:46:34;;;;;;;2.08;1.00;;;30.90;38.60;;;;;;5092292;28;20108;-56
2022/07/05 11:49:01;;;;;;;3.05;1.20;;;31.00;38.50;;;;;;5092271;28;20032;-55
2022/07/05 11:51:26;;;;;;;2.33;1.30;;;31.00;36.50;;;;;;5091999;28;20103;-49
2022/07/05 11:53:52;;;;;;;3.00;1.30;;;30.80;36.10;;;;;;5092185;28;20526;-48
2022/07/05 11:56:18;;;;;;;2.60;1.00;;;30.00;35.60;;;;;;5092124;28;20506;-44
2022/07/05 11:58:44;;;;;;;2.55;1.30;;;29.10;39.60;;;;;;5092367;28;20016;-55
2022/07/05 12:01:10;;;;;;;3.15;1.30;;;28.40;41.30;;;;;;5091833;28;20063;-46
2022/07/05 12:03:35;;;;;;;4.68;1.70;;;27.70;41.70;;;;;;5092259;28;20069;-55
2022/07/05 12:06:23;;;;;;;6.57;3.28;;;27.00;40.90;;;;;;5092211;28;20028;-54
2022/07/05 12:09:02;;;;;;;8.02;3.40;;;26.40;43.30;;;;;;5091827;28;20391;-48
2022/07/05 12:14:20;;;;;;;3.88;2.40;;;26.70;45.40;;;;;;5091747;28;20026;-41
2022/07/05 12:16:46;;;;;;;5.40;2.55;;;27.20;42.50;;;;;;5091690;28;20024;-43
2022/07/05 12:19:23;;;;;;;5.35;2.33;;;27.40;44.10;;;;;;5091893;28;20032;-39
2022/07/05 12:21:53;;;;;;;5.70;3.33;;;27.30;42.40;;;;;;5091565;28;20035;-42
2022/07/05 12:24:19;;;;;;;7.90;5.40;;;27.30;45.40;;;;;;5091676;28;20453;-44
2022/07/05 12:26:45;;;;;;;8.48;6.03;;;27.60;45.20;;;;;;5076766;28;20012;-40
2022/07/05 12:29:11;;;;;;;8.05;5.47;;;27.70;45.40;;;;;;5081946;28;20085;-39
2022/07/05 12:31:37;;;;;;;10.35;6.90;;;27.70;40.90;;;;;;5084853;28;20360;-43
2022/07/05 12:34:21;;;;;;;14.82;10.25;;;27.70;48.20;;;;;;5091396;28;20026;-47
2022/07/05 12:36:47;;;;;;;15.45;10.07;;;28.00;44.70;;;;;;5091313;28;20024;-43
2022/07/05 12:39:18;;;;;;;17.17;13.48;;;28.20;44.10;;;;;;5091391;28;20091;-52
2022/07/05 12:41:44;;;;;;;23.45;19.33;;;28.30;41.10;;;;;;5091433;28;20047;-52
2022/07/05 12:44:10;;;;;;;43.10;33.90;;;28.40;40.30;;;;;;5091436;28;20029;-59
2022/07/05 12:46:37;;;;;;;37.97;30.98;;;28.40;40.30;;;;;;5091411;28;20100;-54
2022/07/05 12:49:03;;;;;;;31.10;24.33;;;28.30;41.70;;;;;;5091238;28;20360;-48
2022/07/05 12:51:37;;;;;;;45.15;36.17;;;28.10;42.00;;;;;;5091423;28;20028;-61
2022/07/05 12:59:37;;;;;;;51.28;42.50;;;27.80;44.30;;;;;;5091014;28;20521;-51
2022/07/05 13:02:03;;;;;;;52.75;43.92;;;27.90;44.20;;;;;;5090982;28;20536;-49
2022/07/05 13:04:29;;;;;;;57.17;45.35;;;27.60;42.30;;;;;;5090951;28;20027;-41